createdAt,value
2019-01-20T02:58:08.974Z,7.6
2019-01-20T03:16:08.764Z,6.8
2019-01-20T03:30:08.618Z,7.0
2019-01-20T03:34:08.626Z,7.0
2019-01-20T03:48:33.816Z,7.1
2019-01-20T04:42:58.393Z,7.5
2019-01-20T04:55:58.262Z,7.0
2019-01-20T05:19:58.017Z,7.4
2019-01-20T06:49:57.081Z,23.6
2019-01-20T06:52:57.057Z,25.29
2019-01-20T08:36:55.975Z,13.19
2019-01-20T09:43:55.276Z,10.19
2019-01-20T10:34:19.422Z,10.19
2019-01-20T11:12:43.859Z,10.00
2019-01-20T12:37:42.990Z,11.1
2019-01-20T12:41:42.934Z,10.8
2019-01-20T12:57:42.759Z,11.1
2019-01-20T13:00:42.729Z,10.6
2019-01-20T13:09:42.640Z,11.0
2019-01-20T13:15:42.577Z,12.0
2019-01-20T13:16:42.588Z,11.8
2019-01-20T13:19:42.539Z,11.5
2019-01-20T13:20:42.516Z,12.1
2019-01-20T13:21:42.505Z,11.8
2019-01-20T13:22:42.506Z,12.1
2019-01-20T13:23:42.488Z,12.3
2019-01-20T13:24:42.498Z,12.3
2019-01-20T13:25:42.475Z,11.3
2019-01-20T13:26:42.453Z,11.1
2019-01-20T13:27:42.453Z,11.8
2019-01-20T13:28:42.450Z,11.5
2019-01-20T13:29:42.427Z,11.5
2019-01-20T13:30:42.425Z,12.0
2019-01-20T13:31:42.402Z,11.1
2019-01-20T13:32:42.393Z,11.8
2019-01-20T13:33:42.466Z,12.1
2019-01-20T13:34:42.370Z,12.0
2019-01-20T13:35:42.362Z,11.6
2019-01-20T13:36:42.372Z,11.3
2019-01-20T13:37:42.345Z,12.3
2019-01-20T13:38:42.352Z,11.3
2019-01-20T13:39:42.332Z,11.1
2019-01-20T13:40:42.765Z,11.6
2019-01-20T13:41:42.300Z,12.1
2019-01-20T13:42:42.291Z,12.1
2019-01-20T13:43:42.413Z,12.6
2019-01-20T13:44:46.145Z,11.5
2019-01-20T13:45:42.261Z,11.6
2019-01-20T13:46:42.261Z,12.3
2019-01-20T13:47:48.524Z,12.1
2019-01-20T13:49:09.989Z,11.6
2019-01-20T13:50:09.979Z,11.8
2019-01-20T13:51:09.964Z,11.8
2019-01-20T13:52:09.959Z,11.1
2019-01-20T13:53:09.961Z,11.8
2019-01-20T13:54:09.930Z,11.3
2019-01-20T13:55:09.947Z,11.6
2019-01-20T13:56:09.920Z,12.3
2019-01-20T13:57:09.900Z,11.3
2019-01-20T13:58:09.922Z,11.5
2019-01-20T13:59:09.879Z,11.8
2019-01-20T14:00:10.569Z,11.3
2019-01-20T14:01:09.867Z,11.5
2019-01-20T14:02:09.856Z,11.3
2019-01-20T14:03:09.841Z,11.8
2019-01-20T14:04:09.844Z,11.6
2019-01-20T14:05:09.835Z,11.6
2019-01-20T14:06:09.812Z,11.6
2019-01-20T14:07:09.798Z,12.3
2019-01-20T14:08:09.793Z,11.3
2019-01-20T14:09:09.786Z,12.1
2019-01-20T14:10:09.790Z,11.8
2019-01-20T14:11:09.765Z,11.8
2019-01-20T14:12:09.753Z,11.1
2019-01-20T14:13:09.737Z,11.6
2019-01-20T14:14:09.731Z,11.5
2019-01-20T14:15:09.725Z,11.8
2019-01-20T14:16:09.705Z,11.6
2019-01-20T14:17:09.714Z,11.3
2019-01-20T14:18:09.693Z,11.0
2019-01-20T14:19:09.678Z,11.5
2019-01-20T14:20:09.667Z,11.6
2019-01-20T14:21:09.667Z,11.8
2019-01-20T14:22:09.644Z,11.5
2019-01-20T14:23:09.635Z,10.8
2019-01-20T14:24:09.626Z,11.3
2019-01-20T14:25:09.611Z,12.1
2019-01-20T14:26:09.614Z,11.1
2019-01-20T14:27:09.603Z,11.1
2019-01-20T14:28:09.596Z,11.0
2019-01-20T14:29:09.577Z,10.8
2019-01-20T14:30:09.561Z,10.3
2019-01-20T14:31:09.570Z,10.6
2019-01-20T14:32:09.541Z,10.6
2019-01-20T14:33:09.532Z,10.5
2019-01-20T14:34:09.533Z,10.1
2019-01-20T14:35:09.580Z,11.1
2019-01-20T14:36:09.514Z,10.8
2019-01-20T14:37:09.496Z,11.0
2019-01-20T14:38:09.524Z,10.8
2019-01-20T14:39:09.474Z,11.1
2019-01-20T14:40:09.467Z,10.5
2019-01-20T14:41:09.455Z,10.1
2019-01-20T14:42:09.445Z,10.5
2019-01-20T14:43:09.497Z,10.8
2019-01-20T14:44:09.418Z,10.0
2019-01-20T14:45:09.424Z,10.1
2019-01-20T14:46:09.398Z,11.0
2019-01-20T14:47:09.387Z,10.1
2019-01-20T14:48:09.382Z,10.3
2019-01-20T14:49:09.409Z,9.6
2019-01-20T14:50:09.394Z,10.3
2019-01-20T14:51:09.348Z,10.1
2019-01-20T14:52:09.356Z,10.1
2019-01-20T14:53:09.340Z,10.1
2019-01-20T14:54:09.326Z,10.1
2019-01-20T14:55:09.427Z,9.8
2019-01-20T14:56:09.300Z,10.5
2019-01-20T14:57:09.304Z,10.3
2019-01-20T14:58:09.281Z,10.6
2019-01-20T14:59:09.273Z,9.8
2019-01-20T15:00:13.941Z,9.8
2019-01-20T15:01:09.305Z,9.8
2019-01-20T15:02:09.248Z,10.0
2019-01-20T15:03:09.229Z,9.6
2019-01-20T15:04:09.286Z,9.8
2019-01-20T15:05:09.203Z,10.5
2019-01-20T15:06:09.198Z,10.0
2019-01-20T15:07:09.183Z,9.8
2019-01-20T15:08:09.186Z,9.6
2019-01-20T15:09:09.180Z,9.6
2019-01-20T15:10:09.163Z,9.5
2019-01-20T15:11:09.144Z,9.6
2019-01-20T15:12:09.131Z,9.8
2019-01-20T15:13:09.170Z,9.1
2019-01-20T15:14:09.226Z,9.6
2019-01-20T15:15:10.128Z,9.6
2019-01-20T15:16:09.095Z,9.8
2019-01-20T15:17:09.079Z,9.8
2019-01-20T15:18:09.099Z,10.0
2019-01-20T15:19:09.071Z,10.0
2019-01-20T15:20:09.056Z,10.1
2019-01-20T15:21:09.045Z,10.1
2019-01-20T15:22:10.411Z,10.0
2019-01-20T15:23:09.020Z,10.1
2019-01-20T15:24:09.015Z,10.1
2019-01-20T15:25:08.998Z,9.6
2019-01-20T15:26:09.017Z,10.0
2019-01-20T15:27:08.992Z,10.1
2019-01-20T15:28:08.993Z,10.3
2019-01-20T15:29:08.960Z,9.8
2019-01-20T15:30:08.952Z,10.3
2019-01-20T15:31:08.938Z,10.3
2019-01-20T15:32:08.939Z,10.1
2019-01-20T15:33:08.931Z,10.0
2019-01-20T15:34:08.928Z,10.5
2019-01-20T15:35:08.895Z,10.8
2019-01-20T15:36:08.897Z,10.5
2019-01-20T15:37:08.874Z,9.8
2019-01-20T15:38:08.881Z,11.0
2019-01-20T15:59:33.600Z,13.00
2019-01-20T16:17:33.412Z,11.60
2019-01-20T16:35:58.642Z,13.39
2019-01-20T16:38:58.604Z,15.69
2019-01-20T17:44:57.917Z,16.7
2019-01-20T23:45:49.443Z,19.3
